createdAt,value
2023-04-11T00:05:35.572Z,11.80
2023-04-11T00:08:36.598Z,12.00
2023-04-11T00:11:37.890Z,12.10
2023-04-11T00:14:45.684Z,12.10
2023-04-11T00:17:46.694Z,12.10
2023-04-11T00:20:47.881Z,12.30
2023-04-11T00:23:48.636Z,12.00
2023-04-11T00:26:49.623Z,11.80
2023-04-11T00:29:50.388Z,12.00
2023-04-11T00:32:51.432Z,12.20
2023-04-11T00:35:53.031Z,12.40
2023-04-11T00:38:55.432Z,12.60
2023-04-11T00:42:08.295Z,12.40
2023-04-11T00:45:10.239Z,12.20
2023-04-11T00:48:11.325Z,11.90
2023-04-11T00:51:12.285Z,11.90
2023-04-11T00:54:13.453Z,12.00
2023-04-11T00:57:16.240Z,12.00
2023-04-11T01:00:17.890Z,12.00
2023-04-11T01:03:19.847Z,12.00
2023-04-11T01:06:24.035Z,11.70
2023-04-11T01:09:28.693Z,11.60
2023-04-11T01:12:31.003Z,11.50
2023-04-11T01:15:32.566Z,11.60
2023-04-11T01:18:34.046Z,11.70
2023-04-11T01:21:36.544Z,11.60
2023-04-11T01:24:37.963Z,11.50
2023-04-11T01:27:39.325Z,11.50
2023-04-11T01:30:40.950Z,11.50
2023-04-11T01:33:43.466Z,11.70
2023-04-11T01:36:45.498Z,11.80
2023-04-11T01:39:46.503Z,11.70
2023-04-11T01:42:48.780Z,11.70
2023-04-11T01:45:50.096Z,11.40
2023-04-11T01:48:56.286Z,11.10
2023-04-11T01:51:57.756Z,11.20
2023-04-11T01:54:58.384Z,11.00
2023-04-11T01:57:59.333Z,11.00
2023-04-11T02:01:00.350Z,11.10
2023-04-11T02:04:01.867Z,11.20
2023-04-11T02:07:02.871Z,11.00
2023-04-11T02:10:04.895Z,10.90
2023-04-11T02:13:07.257Z,11.20
2023-04-11T02:16:12.022Z,11.50
2023-04-11T02:19:12.893Z,11.80
2023-04-11T02:22:14.517Z,11.90
2023-04-11T02:25:16.082Z,12.00
2023-04-11T02:28:17.106Z,11.90
2023-04-11T02:31:19.108Z,12.00
2023-04-11T02:34:20.886Z,11.80
2023-04-11T02:37:22.075Z,11.80
2023-04-11T02:40:22.995Z,11.70
2023-04-11T02:43:24.194Z,11.70
2023-04-11T02:46:25.984Z,11.60
2023-04-11T02:49:27.110Z,11.70
2023-04-11T02:52:28.375Z,11.60
2023-04-11T02:55:29.434Z,11.60
2023-04-11T02:58:30.435Z,11.60
2023-04-11T03:01:38.655Z,11.80
2023-04-11T03:04:40.217Z,11.80
2023-04-11T03:07:49.286Z,11.90
2023-04-11T03:10:50.738Z,11.90
2023-04-11T03:13:51.969Z,12.00
2023-04-11T03:16:53.423Z,12.10
2023-04-11T03:19:55.170Z,12.20
2023-04-11T03:22:56.994Z,12.30
2023-04-11T03:25:58.812Z,12.20
2023-04-11T03:29:00.036Z,12.10
2023-04-11T03:32:06.585Z,12.00
2023-04-11T03:35:11.253Z,11.90
2023-04-11T03:38:17.874Z,11.70
2023-04-11T03:41:19.777Z,11.60
2023-04-11T03:44:21.314Z,11.40
2023-04-11T03:47:22.829Z,11.20
2023-04-11T03:50:24.295Z,11.10
2023-04-11T03:53:31.583Z,11.00
2023-04-11T03:56:39.434Z,11.00
2023-04-11T03:59:43.613Z,10.90
2023-04-11T04:02:47.335Z,10.80
2023-04-11T04:05:49.810Z,10.80
2023-04-11T04:08:51.682Z,10.70
2023-04-11T04:11:54.486Z,10.60
2023-04-11T04:15:05.408Z,10.70
2023-04-11T04:18:06.736Z,10.70
2023-04-11T04:21:21.334Z,10.80
2023-04-11T04:24:28.046Z,10.70
2023-04-11T04:27:46.509Z,10.60
2023-04-11T04:30:54.463Z,10.50
2023-04-11T04:33:58.835Z,10.50
2023-04-11T04:37:02.311Z,10.40
2023-04-11T04:40:16.921Z,10.30
2023-04-11T04:43:27.556Z,10.30
2023-04-11T04:46:36.998Z,10.10
2023-04-11T04:49:39.604Z,10.20
2023-04-11T04:52:41.386Z,10.20
2023-04-11T04:55:42.618Z,10.20
2023-04-11T04:58:47.390Z,10.20
2023-04-11T05:01:53.966Z,9.90
2023-04-11T05:05:04.318Z,9.60
2023-04-11T05:08:07.142Z,9.10
2023-04-11T05:11:10.125Z,8.90
2023-04-11T05:14:11.448Z,8.80
2023-04-11T05:17:12.878Z,8.80
2023-04-11T05:20:14.016Z,8.80
2023-04-11T05:23:17.353Z,8.80
2023-04-11T05:26:18.740Z,8.80
2023-04-11T05:29:20.883Z,8.70
2023-04-11T05:32:22.772Z,8.60
2023-04-11T05:35:24.252Z,8.70
2023-04-11T05:38:28.229Z,8.60
2023-04-11T05:41:29.655Z,8.60
2023-04-11T05:44:30.986Z,8.60
2023-04-11T05:47:32.480Z,8.60
2023-04-11T05:50:34.584Z,8.60
2023-04-11T05:53:36.694Z,8.70
2023-04-11T05:56:39.956Z,8.60
2023-04-11T05:59:40.959Z,8.60
2023-04-11T06:02:43.358Z,8.60
2023-04-11T06:05:44.417Z,8.60
2023-04-11T06:08:45.531Z,8.60
2023-04-11T06:11:46.616Z,8.60
2023-04-11T06:14:47.758Z,8.70
2023-04-11T06:17:48.732Z,8.70
2023-04-11T06:20:50.101Z,8.70
2023-04-11T06:23:52.038Z,8.70
2023-04-11T06:26:53.061Z,8.70
2023-04-11T06:29:54.002Z,8.80
2023-04-11T06:32:57.050Z,8.80
2023-04-11T06:35:58.109Z,8.80
2023-04-11T06:38:59.003Z,8.80
2023-04-11T06:42:00.087Z,8.80
2023-04-11T06:45:01.839Z,8.90
2023-04-11T06:48:03.190Z,8.90
2023-04-11T06:51:04.607Z,8.90
2023-04-11T06:54:06.645Z,8.90
2023-04-11T06:57:07.822Z,8.90
2023-04-11T07:00:09.909Z,8.90
2023-04-11T07:03:11.110Z,9.00
2023-04-11T07:06:12.167Z,9.00
2023-04-11T07:09:13.474Z,8.90
2023-04-11T07:12:14.455Z,8.90
2023-04-11T07:15:15.266Z,8.90
2023-04-11T07:18:16.236Z,8.90
2023-04-11T07:21:17.198Z,8.90
2023-04-11T07:24:19.328Z,9.00
2023-04-11T07:27:21.993Z,9.10
2023-04-11T07:30:23.272Z,9.10
2023-04-11T07:33:24.704Z,9.00
2023-04-11T07:36:26.895Z,8.30
2023-04-11T07:39:28.379Z,7.90
2023-04-11T07:42:32.386Z,7.80
2023-04-11T07:45:34.442Z,7.60
2023-04-11T07:48:35.621Z,7.30
2023-04-11T07:51:36.744Z,7.30
2023-04-11T07:54:38.048Z,7.10
2023-04-11T07:57:38.966Z,7.00
2023-04-11T08:00:41.111Z,7.00
2023-04-11T08:03:42.242Z,6.90
2023-04-11T08:06:44.470Z,6.80
2023-04-11T08:09:45.912Z,6.90
2023-04-11T08:12:47.046Z,6.90
2023-04-11T08:15:48.092Z,6.90
2023-04-11T08:18:48.864Z,7.00
2023-04-11T08:21:50.017Z,7.10
2023-04-11T08:24:51.073Z,7.10
2023-04-11T08:27:52.780Z,7.30
2023-04-11T08:30:55.742Z,7.20
2023-04-11T08:33:59.260Z,7.30
2023-04-11T08:37:02.104Z,7.30
2023-04-11T08:40:07.109Z,7.30
2023-04-11T08:43:12.481Z,7.50
2023-04-11T08:46:13.953Z,7.70
2023-04-11T08:49:14.890Z,7.80
2023-04-11T08:52:17.445Z,7.80
2023-04-11T08:55:18.733Z,7.80
2023-04-11T08:58:20.964Z,7.90
2023-04-11T09:01:41.074Z,7.90
2023-04-11T09:04:44.081Z,8.00
2023-04-11T09:07:51.065Z,8.40
2023-04-11T09:10:51.888Z,8.60
2023-04-11T09:14:10.970Z,8.80
2023-04-11T09:17:17.250Z,9.20
2023-04-11T09:20:27.425Z,9.30
2023-04-11T09:23:29.110Z,9.20
2023-04-11T09:26:30.620Z,9.20
2023-04-11T09:29:51.257Z,9.30
2023-04-11T09:32:54.257Z,9.20
2023-04-11T09:35:57.246Z,9.30
2023-04-11T09:38:59.967Z,9.50
2023-04-11T09:42:03.341Z,9.60
2023-04-11T09:45:05.285Z,9.70
2023-04-11T09:48:08.983Z,9.40
2023-04-11T09:51:12.661Z,9.40
2023-04-11T09:54:16.463Z,9.70
2023-04-11T09:57:21.045Z,9.70
2023-04-11T10:00:32.576Z,9.90
2023-04-11T10:03:40.144Z,9.90
2023-04-11T10:07:07.881Z,10.10
2023-04-11T10:10:09.470Z,9.80
2023-04-11T10:13:35.429Z,9.60
2023-04-11T10:16:37.755Z,9.50
2023-04-11T10:19:38.938Z,9.50
2023-04-11T10:22:48.112Z,9.80
2023-04-11T10:26:00.835Z,9.80
2023-04-11T10:29:01.991Z,9.70
2023-04-11T10:32:20.679Z,9.70
2023-04-11T10:35:23.327Z,9.80
2023-04-11T10:38:48.639Z,9.70
2023-04-11T10:41:50.199Z,9.70
2023-04-11T10:45:30.671Z,9.60
2023-04-11T10:48:31.814Z,9.80
2023-04-11T10:51:34.426Z,10.20
2023-04-11T10:54:35.861Z,10.10
2023-04-11T10:58:07.319Z,10.30
2023-04-11T11:04:38.016Z,10.50
2023-04-11T11:07:39.913Z,10.50
2023-04-11T11:10:47.156Z,10.60
2023-04-11T11:13:56.768Z,10.80
2023-04-11T11:16:58.232Z,10.70
2023-04-11T11:19:59.506Z,10.80
2023-04-11T11:23:05.158Z,10.50
2023-04-11T11:26:06.481Z,10.40
2023-04-11T11:29:09.245Z,10.20
2023-04-11T11:32:28.700Z,10.00
2023-04-11T11:35:30.440Z,10.10
2023-04-11T11:38:32.219Z,10.30
2023-04-11T11:41:35.046Z,10.00
2023-04-11T11:44:36.047Z,10.00
2023-04-11T11:47:44.942Z,10.00
2023-04-11T11:50:46.312Z,10.20
2023-04-11T11:54:12.114Z,10.40
2023-04-11T11:57:22.958Z,10.60
2023-04-11T12:00:26.473Z,11.00
2023-04-11T12:03:29.948Z,10.60
2023-04-11T12:06:32.623Z,10.30
2023-04-11T12:09:33.811Z,10.20
2023-04-11T12:12:37.191Z,10.00
2023-04-11T12:15:38.800Z,9.80
2023-04-11T12:18:42.954Z,9.60
2023-04-11T12:21:43.869Z,9.60
2023-04-11T12:24:44.634Z,9.60
2023-04-11T12:27:47.284Z,9.30
2023-04-11T12:30:48.030Z,9.20
2023-04-11T12:33:48.868Z,9.40
2023-04-11T12:36:49.699Z,9.40
2023-04-11T12:39:51.821Z,9.30
2023-04-11T12:42:56.283Z,9.40
2023-04-11T12:45:58.110Z,9.50
2023-04-11T12:48:59.092Z,9.50
2023-04-11T12:52:00.196Z,9.70
2023-04-11T12:55:01.700Z,9.70
2023-04-11T12:58:03.475Z,9.80
2023-04-11T13:01:06.220Z,9.80
2023-04-11T13:04:07.686Z,9.70
2023-04-11T13:07:10.269Z,9.60
2023-04-11T13:10:11.582Z,9.60
2023-04-11T13:16:18.712Z,10.10
2023-04-11T13:19:21.161Z,10.10
2023-04-11T13:22:22.485Z,10.20
2023-04-11T13:25:23.342Z,10.30
2023-04-11T13:28:24.320Z,11.00
2023-04-11T13:31:27.669Z,11.30
2023-04-11T13:34:29.751Z,11.10
2023-04-11T13:37:30.757Z,11.40
2023-04-11T13:40:31.578Z,12.00
2023-04-11T13:43:32.360Z,11.80
2023-04-11T13:46:33.286Z,11.50
2023-04-11T13:49:34.134Z,11.90
2023-04-11T13:52:35.099Z,11.50
2023-04-11T13:55:36.361Z,11.00
2023-04-11T13:58:38.462Z,11.00
2023-04-11T14:01:39.823Z,11.20
2023-04-11T14:04:40.992Z,11.20
2023-04-11T14:07:42.232Z,11.40
2023-04-11T14:10:43.418Z,11.50
2023-04-11T14:13:44.221Z,11.40
2023-04-11T14:16:45.205Z,11.90
2023-04-11T14:19:46.035Z,11.90
2023-04-11T14:22:47.310Z,12.20
2023-04-11T14:25:48.770Z,12.20
2023-04-11T14:28:50.417Z,12.30
2023-04-11T14:31:51.892Z,12.00
2023-04-11T14:34:53.496Z,12.00
2023-04-11T14:37:54.709Z,11.70
2023-04-11T14:40:55.795Z,11.40
2023-04-11T14:43:57.552Z,11.30
2023-04-11T14:46:58.968Z,11.50
2023-04-11T14:50:00.850Z,11.80
2023-04-11T14:53:02.155Z,12.00
2023-04-11T14:56:07.139Z,12.30
2023-04-11T14:59:11.649Z,12.50
2023-04-11T15:02:13.671Z,13.00
2023-04-11T15:05:17.792Z,12.30
2023-04-11T15:08:18.956Z,13.40
2023-04-11T15:11:19.972Z,12.90
2023-04-11T15:14:21.110Z,14.70
2023-04-11T15:17:22.267Z,15.50
2023-04-11T15:20:24.538Z,15.90
2023-04-11T15:23:26.276Z,15.40
2023-04-11T15:26:27.483Z,17.20
2023-04-11T15:29:28.655Z,16.70
2023-04-11T15:32:30.019Z,17.10
2023-04-11T15:35:31.137Z,16.60
2023-04-11T15:38:32.111Z,17.40
2023-04-11T15:41:33.188Z,17.20
2023-04-11T15:44:34.501Z,15.90
2023-04-11T15:47:36.117Z,14.40
2023-04-11T15:50:37.326Z,14.80
2023-04-11T15:53:38.343Z,16.10
2023-04-11T15:56:39.294Z,14.50
2023-04-11T15:59:41.700Z,14.10
2023-04-11T16:02:50.139Z,14.20
2023-04-11T16:05:53.200Z,13.80
2023-04-11T16:08:54.680Z,12.40
2023-04-11T16:11:56.941Z,12.10
2023-04-11T16:14:58.947Z,11.90
2023-04-11T16:17:59.865Z,12.20
2023-04-11T16:21:01.269Z,12.60
2023-04-11T16:24:02.531Z,12.10
2023-04-11T16:27:04.199Z,12.70
2023-04-11T16:30:06.295Z,12.40
2023-04-11T16:33:07.697Z,12.30
2023-04-11T16:36:09.383Z,12.20
2023-04-11T16:39:10.503Z,12.20
2023-04-11T16:42:11.245Z,12.10
2023-04-11T16:45:12.535Z,12.10
2023-04-11T16:48:13.654Z,12.10
2023-04-11T16:51:14.629Z,12.10
2023-04-11T16:54:16.254Z,11.90
2023-04-11T16:57:18.540Z,11.40
2023-04-11T17:00:20.835Z,11.00
2023-04-11T17:03:22.323Z,10.80
2023-04-11T17:06:23.988Z,10.90
2023-04-11T17:09:24.982Z,10.70
2023-04-11T17:12:26.274Z,10.60
2023-04-11T17:15:27.501Z,10.30
2023-04-11T17:18:28.693Z,10.20
2023-04-11T17:21:29.683Z,10.10
2023-04-11T17:24:31.183Z,9.70
2023-04-11T17:27:32.773Z,9.60
2023-04-11T17:30:33.960Z,9.60
2023-04-11T17:33:35.196Z,9.50
2023-04-11T17:36:42.705Z,9.40
2023-04-11T17:39:43.969Z,9.30
2023-04-11T17:42:46.280Z,9.30
2023-04-11T17:45:49.842Z,9.20
2023-04-11T17:48:51.231Z,9.10
2023-04-11T17:51:59.063Z,9.10
2023-04-11T17:55:00.670Z,9.10
2023-04-11T17:58:01.949Z,9.00
2023-04-11T18:01:05.434Z,8.90
2023-04-11T18:04:09.794Z,8.90
2023-04-11T18:07:11.558Z,8.90
2023-04-11T18:10:15.726Z,8.90
2023-04-11T18:13:16.593Z,8.80
2023-04-11T18:16:18.635Z,8.80
2023-04-11T18:19:20.009Z,8.80
2023-04-11T18:22:21.249Z,8.80
2023-04-11T18:25:23.805Z,8.80
2023-04-11T18:28:25.020Z,8.80
2023-04-11T18:31:26.048Z,8.70
2023-04-11T18:34:26.898Z,8.70
2023-04-11T18:37:27.864Z,8.60
2023-04-11T18:40:29.466Z,8.60
2023-04-11T18:43:31.138Z,8.60
2023-04-11T18:46:34.188Z,8.60
2023-04-11T18:49:36.551Z,8.60
2023-04-11T18:52:37.833Z,8.60
2023-04-11T18:55:39.615Z,8.60
2023-04-11T18:58:45.514Z,8.50
2023-04-11T19:01:48.714Z,8.50
2023-04-11T19:04:50.841Z,8.60
2023-04-11T19:07:52.412Z,8.50
2023-04-11T19:10:55.946Z,8.50
2023-04-11T19:14:00.150Z,8.50
2023-04-11T19:17:01.755Z,8.40
2023-04-11T19:20:07.019Z,8.40
2023-04-11T19:23:08.026Z,8.40
2023-04-11T19:26:09.802Z,8.40
2023-04-11T19:29:11.115Z,8.50
2023-04-11T19:32:12.898Z,8.40
2023-04-11T19:35:14.769Z,8.50
2023-04-11T19:38:16.028Z,8.40
2023-04-11T19:41:19.687Z,8.40
2023-04-11T19:44:21.450Z,8.40
2023-04-11T19:47:22.354Z,8.40
2023-04-11T19:50:23.238Z,8.40
2023-04-11T19:53:23.974Z,8.40
2023-04-11T19:56:25.052Z,8.40
2023-04-11T19:59:25.836Z,8.40
2023-04-11T20:02:27.074Z,8.50
2023-04-11T20:05:31.738Z,8.40
2023-04-11T20:08:32.831Z,8.50
2023-04-11T20:11:33.665Z,8.40
2023-04-11T20:14:34.816Z,8.40
2023-04-11T20:17:36.361Z,8.50
2023-04-11T20:20:38.605Z,8.40
2023-04-11T20:23:40.705Z,8.40
2023-04-11T20:26:41.621Z,8.50
2023-04-11T20:29:42.558Z,8.40
2023-04-11T20:32:44.860Z,8.40
2023-04-11T20:35:46.407Z,8.30
2023-04-11T20:38:47.523Z,8.30
2023-04-11T20:41:50.049Z,8.30
2023-04-11T20:44:51.320Z,8.40
2023-04-11T20:47:53.653Z,8.40
2023-04-11T20:50:56.332Z,8.40
2023-04-11T20:53:57.947Z,8.30
2023-04-11T20:56:59.457Z,8.40
2023-04-11T21:00:01.931Z,8.40
2023-04-11T21:03:02.975Z,8.40
2023-04-11T21:06:07.667Z,8.40
2023-04-11T21:09:08.434Z,8.30
2023-04-11T21:12:09.354Z,8.30
2023-04-11T21:15:12.008Z,8.30
2023-04-11T21:18:12.980Z,8.20
2023-04-11T21:21:14.325Z,8.20
2023-04-11T21:24:15.771Z,8.20
2023-04-11T21:27:16.892Z,8.20
2023-04-11T21:30:18.183Z,8.20
2023-04-11T21:33:18.979Z,8.10
2023-04-11T21:36:19.940Z,8.10
2023-04-11T21:39:21.478Z,8.00
2023-04-11T21:42:22.493Z,8.00
2023-04-11T21:45:23.953Z,7.90
2023-04-11T21:48:24.747Z,7.80
2023-04-11T21:51:27.705Z,7.80
2023-04-11T21:54:28.833Z,7.80
2023-04-11T21:57:33.962Z,7.80
2023-04-11T22:00:35.064Z,7.70
2023-04-11T22:03:40.363Z,7.60
2023-04-11T22:06:46.891Z,7.50
2023-04-11T22:09:47.697Z,7.50
2023-04-11T22:12:51.963Z,7.40
2023-04-11T22:15:58.814Z,7.40
2023-04-11T22:19:00.928Z,7.40
2023-04-11T22:22:03.447Z,7.30
2023-04-11T22:25:04.714Z,7.30
2023-04-11T22:28:06.010Z,7.20
2023-04-11T22:31:07.763Z,7.10
2023-04-11T22:34:09.771Z,7.10
2023-04-11T22:37:10.971Z,7.10
2023-04-11T22:40:13.438Z,7.10
2023-04-11T22:43:14.527Z,7.10
2023-04-11T22:46:15.636Z,7.10
2023-04-11T22:49:18.150Z,7.00
2023-04-11T22:52:24.475Z,7.00
2023-04-11T22:55:25.647Z,7.00
2023-04-11T22:58:26.909Z,7.00
2023-04-11T23:01:28.375Z,6.90
2023-04-11T23:04:32.442Z,6.90
2023-04-11T23:07:34.693Z,6.90
2023-04-11T23:10:37.299Z,6.90
2023-04-11T23:13:38.325Z,6.90
2023-04-11T23:16:39.150Z,6.80
2023-04-11T23:19:40.518Z,6.80
2023-04-11T23:22:42.713Z,6.80
2023-04-11T23:25:44.126Z,6.70
2023-04-11T23:28:46.805Z,6.70
2023-04-11T23:31:47.738Z,6.60
2023-04-11T23:34:49.007Z,6.60
2023-04-11T23:37:50.029Z,6.60
2023-04-11T23:40:51.253Z,6.70
2023-04-11T23:43:52.134Z,6.70
2023-04-11T23:46:52.888Z,6.70
2023-04-11T23:49:53.857Z,6.70
2023-04-11T23:52:55.058Z,6.70
2023-04-11T23:55:56.271Z,6.60
2023-04-11T23:58:57.276Z,6.60
